sensor_id;sensor_type;location;lat;lon;timestamp;P1;durP1;ratioP1;P2;durP2;ratioP2
23543;SDS011;11950;51.230;4.012;2023-05-07T00:02:24;15.48;;;11.25;;
23543;SDS011;11950;51.230;4.012;2023-05-07T00:04:51;19.92;;;11.70;;
23543;SDS011;11950;51.230;4.012;2023-05-07T00:07:18;15.35;;;11.07;;
23543;SDS011;11950;51.230;4.012;2023-05-07T00:09:44;15.45;;;10.57;;
23543;SDS011;11950;51.230;4.012;2023-05-07T00:12:10;16.55;;;11.52;;
23543;SDS011;11950;51.230;4.012;2023-05-07T00:14:37;14.98;;;11.07;;
23543;SDS011;11950;51.230;4.012;2023-05-07T00:17:03;14.10;;;10.88;;
23543;SDS011;11950;51.230;4.012;2023-05-07T00:19:30;14.18;;;10.70;;
23543;SDS011;11950;51.230;4.012;2023-05-07T00:21:57;13.50;;;10.20;;
23543;SDS011;11950;51.230;4.012;2023-05-07T00:24:24;11.25;;;9.77;;
23543;SDS011;11950;51.230;4.012;2023-05-07T00:26:50;12.95;;;10.38;;
23543;SDS011;11950;51.230;4.012;2023-05-07T00:29:18;17.42;;;11.05;;
23543;SDS011;11950;51.230;4.012;2023-05-07T00:31:44;15.25;;;10.43;;
23543;SDS011;11950;51.230;4.012;2023-05-07T00:34:10;16.77;;;10.82;;
23543;SDS011;11950;51.230;4.012;2023-05-07T00:36:37;14.50;;;10.10;;
23543;SDS011;11950;51.230;4.012;2023-05-07T00:39:03;12.20;;;10.45;;
23543;SDS011;11950;51.230;4.012;2023-05-07T00:41:30;14.38;;;10.45;;
23543;SDS011;11950;51.230;4.012;2023-05-07T00:43:56;14.75;;;10.98;;
23543;SDS011;11950;51.230;4.012;2023-05-07T00:46:23;16.02;;;11.13;;
23543;SDS011;11950;51.230;4.012;2023-05-07T00:48:50;11.57;;;10.05;;
23543;SDS011;11950;51.230;4.012;2023-05-07T00:51:17;12.02;;;9.95;;
23543;SDS011;11950;51.230;4.012;2023-05-07T00:53:44;11.75;;;9.85;;
23543;SDS011;11950;51.230;4.012;2023-05-07T00:56:11;13.70;;;9.45;;
23543;SDS011;11950;51.230;4.012;2023-05-07T00:58:37;13.63;;;10.05;;
23543;SDS011;11950;51.230;4.012;2023-05-07T01:01:04;13.00;;;9.77;;
23543;SDS011;11950;51.230;4.012;2023-05-07T01:03:30;14.23;;;10.05;;
23543;SDS011;11950;51.230;4.012;2023-05-07T01:05:57;14.45;;;10.13;;
23543;SDS011;11950;51.230;4.012;2023-05-07T01:08:25;12.77;;;9.45;;
23543;SDS011;11950;51.230;4.012;2023-05-07T01:10:54;13.60;;;9.80;;
23543;SDS011;11950;51.230;4.012;2023-05-07T01:13:21;15.63;;;10.43;;
23543;SDS011;11950;51.230;4.012;2023-05-07T01:15:49;16.17;;;10.40;;
23543;SDS011;11950;51.230;4.012;2023-05-07T01:18:15;11.18;;;10.00;;
23543;SDS011;11950;51.230;4.012;2023-05-07T01:20:42;14.68;;;10.30;;
23543;SDS011;11950;51.230;4.012;2023-05-07T01:23:09;12.27;;;9.75;;
23543;SDS011;11950;51.230;4.012;2023-05-07T01:25:37;13.65;;;9.82;;
23543;SDS011;11950;51.230;4.012;2023-05-07T01:28:04;10.88;;;9.43;;
23543;SDS011;11950;51.230;4.012;2023-05-07T01:30:34;11.10;;;9.45;;
23543;SDS011;11950;51.230;4.012;2023-05-07T01:33:07;13.40;;;9.77;;
23543;SDS011;11950;51.230;4.012;2023-05-07T01:35:37;14.38;;;9.65;;
23543;SDS011;11950;51.230;4.012;2023-05-07T01:38:07;12.50;;;9.68;;
23543;SDS011;11950;51.230;4.012;2023-05-07T01:40:34;12.40;;;10.15;;
23543;SDS011;11950;51.230;4.012;2023-05-07T01:43:02;13.85;;;10.00;;
23543;SDS011;11950;51.230;4.012;2023-05-07T01:45:30;13.32;;;10.57;;
23543;SDS011;11950;51.230;4.012;2023-05-07T01:48:00;11.85;;;10.48;;
23543;SDS011;11950;51.230;4.012;2023-05-07T01:50:27;12.17;;;10.50;;
23543;SDS011;11950;51.230;4.012;2023-05-07T01:52:55;13.68;;;10.13;;
23543;SDS011;11950;51.230;4.012;2023-05-07T01:55:22;11.27;;;9.90;;
23543;SDS011;11950;51.230;4.012;2023-05-07T01:57:49;13.68;;;10.60;;
23543;SDS011;11950;51.230;4.012;2023-05-07T02:00:16;14.55;;;10.65;;
23543;SDS011;11950;51.230;4.012;2023-05-07T02:02:44;14.43;;;10.77;;
23543;SDS011;11950;51.230;4.012;2023-05-07T02:05:22;12.27;;;10.10;;
23543;SDS011;11950;51.230;4.012;2023-05-07T02:07:55;13.80;;;10.38;;
23543;SDS011;11950;51.230;4.012;2023-05-07T02:10:22;12.43;;;10.88;;
23543;SDS011;11950;51.230;4.012;2023-05-07T02:12:48;14.13;;;10.52;;
23543;SDS011;11950;51.230;4.012;2023-05-07T02:15:14;13.63;;;11.27;;
23543;SDS011;11950;51.230;4.012;2023-05-07T02:20:27;15.25;;;10.40;;
23543;SDS011;11950;51.230;4.012;2023-05-07T02:22:54;15.85;;;11.25;;
23543;SDS011;11950;51.230;4.012;2023-05-07T02:25:20;13.88;;;11.27;;
23543;SDS011;11950;51.230;4.012;2023-05-07T02:27:47;13.93;;;10.57;;
23543;SDS011;11950;51.230;4.012;2023-05-07T02:30:16;14.25;;;10.27;;
23543;SDS011;11950;51.230;4.012;2023-05-07T02:32:42;14.35;;;11.07;;
23543;SDS011;11950;51.230;4.012;2023-05-07T02:35:09;16.05;;;11.32;;
23543;SDS011;11950;51.230;4.012;2023-05-07T02:37:35;15.48;;;11.35;;
23543;SDS011;11950;51.230;4.012;2023-05-07T02:40:02;14.85;;;12.40;;
23543;SDS011;11950;51.230;4.012;2023-05-07T02:42:30;18.48;;;14.57;;
23543;SDS011;11950;51.230;4.012;2023-05-07T02:44:57;17.92;;;14.00;;
23543;SDS011;11950;51.230;4.012;2023-05-07T02:47:24;16.35;;;13.23;;
23543;SDS011;11950;51.230;4.012;2023-05-07T02:49:53;15.80;;;12.00;;
23543;SDS011;11950;51.230;4.012;2023-05-07T02:52:20;13.52;;;12.02;;
23543;SDS011;11950;51.230;4.012;2023-05-07T02:54:47;16.25;;;12.48;;
23543;SDS011;11950;51.230;4.012;2023-05-07T02:57:14;16.25;;;12.65;;
23543;SDS011;11950;51.230;4.012;2023-05-07T02:59:41;16.20;;;12.45;;
23543;SDS011;11950;51.230;4.012;2023-05-07T03:02:07;14.00;;;12.43;;
23543;SDS011;11950;51.230;4.012;2023-05-07T03:04:34;15.20;;;12.50;;
23543;SDS011;11950;51.230;4.012;2023-05-07T03:07:01;14.60;;;12.65;;
23543;SDS011;11950;51.230;4.012;2023-05-07T03:09:27;17.15;;;12.63;;
23543;SDS011;11950;51.230;4.012;2023-05-07T03:11:53;14.45;;;12.43;;
23543;SDS011;11950;51.230;4.012;2023-05-07T03:14:20;15.43;;;12.05;;
23543;SDS011;11950;51.230;4.012;2023-05-07T03:16:46;14.50;;;12.38;;
23543;SDS011;11950;51.230;4.012;2023-05-07T03:19:13;14.73;;;11.88;;
23543;SDS011;11950;51.230;4.012;2023-05-07T03:21:39;15.90;;;10.77;;
23543;SDS011;11950;51.230;4.012;2023-05-07T03:24:05;14.10;;;10.93;;
23543;SDS011;11950;51.230;4.012;2023-05-07T03:26:32;15.48;;;11.45;;
23543;SDS011;11950;51.230;4.012;2023-05-07T03:28:59;14.85;;;11.75;;
23543;SDS011;11950;51.230;4.012;2023-05-07T03:31:25;17.13;;;12.27;;
23543;SDS011;11950;51.230;4.012;2023-05-07T03:33:56;14.55;;;11.30;;
23543;SDS011;11950;51.230;4.012;2023-05-07T03:38:52;13.77;;;10.40;;
23543;SDS011;11950;51.230;4.012;2023-05-07T03:41:22;12.35;;;10.57;;
23543;SDS011;11950;51.230;4.012;2023-05-07T03:43:48;17.30;;;12.65;;
23543;SDS011;11950;51.230;4.012;2023-05-07T03:46:15;14.23;;;11.70;;
23543;SDS011;11950;51.230;4.012;2023-05-07T03:48:42;14.75;;;11.57;;
23543;SDS011;11950;51.230;4.012;2023-05-07T03:51:10;13.57;;;11.23;;
23543;SDS011;11950;51.230;4.012;2023-05-07T03:53:36;14.77;;;11.43;;
23543;SDS011;11950;51.230;4.012;2023-05-07T03:56:02;16.13;;;11.55;;
23543;SDS011;11950;51.230;4.012;2023-05-07T03:58:33;13.88;;;11.18;;
23543;SDS011;11950;51.230;4.012;2023-05-07T04:01:05;17.10;;;11.13;;
23543;SDS011;11950;51.230;4.012;2023-05-07T04:03:33;14.10;;;10.95;;
23543;SDS011;11950;51.230;4.012;2023-05-07T04:06:00;13.82;;;10.60;;
23543;SDS011;11950;51.230;4.012;2023-05-07T04:08:26;12.15;;;10.48;;
23543;SDS011;11950;51.230;4.012;2023-05-07T04:10:54;11.85;;;9.32;;
23543;SDS011;11950;51.230;4.012;2023-05-07T04:13:23;10.55;;;9.57;;
23543;SDS011;11950;51.230;4.012;2023-05-07T04:15:51;13.27;;;10.32;;
23543;SDS011;11950;51.230;4.012;2023-05-07T04:18:18;13.30;;;10.63;;
23543;SDS011;11950;51.230;4.012;2023-05-07T04:20:47;15.05;;;10.95;;
23543;SDS011;11950;51.230;4.012;2023-05-07T04:23:15;12.68;;;10.18;;
23543;SDS011;11950;51.230;4.012;2023-05-07T04:25:41;14.25;;;11.07;;
23543;SDS011;11950;51.230;4.012;2023-05-07T04:28:22;13.73;;;10.82;;
23543;SDS011;11950;51.230;4.012;2023-05-07T04:30:49;13.45;;;10.98;;
23543;SDS011;11950;51.230;4.012;2023-05-07T04:33:16;11.93;;;10.13;;
23543;SDS011;11950;51.230;4.012;2023-05-07T04:35:44;12.68;;;11.25;;
23543;SDS011;11950;51.230;4.012;2023-05-07T04:38:10;19.40;;;12.68;;
23543;SDS011;11950;51.230;4.012;2023-05-07T04:40:37;15.98;;;12.73;;
23543;SDS011;11950;51.230;4.012;2023-05-07T04:43:05;15.25;;;11.25;;
23543;SDS011;11950;51.230;4.012;2023-05-07T04:45:38;15.32;;;11.00;;
23543;SDS011;11950;51.230;4.012;2023-05-07T04:48:08;11.63;;;10.25;;
23543;SDS011;11950;51.230;4.012;2023-05-07T04:50:35;11.57;;;10.38;;
23543;SDS011;11950;51.230;4.012;2023-05-07T04:53:02;13.70;;;10.15;;
23543;SDS011;11950;51.230;4.012;2023-05-07T04:55:30;13.80;;;11.13;;
23543;SDS011;11950;51.230;4.012;2023-05-07T04:57:56;15.98;;;11.10;;
23543;SDS011;11950;51.230;4.012;2023-05-07T05:00:23;15.50;;;11.50;;
23543;SDS011;11950;51.230;4.012;2023-05-07T05:02:52;14.77;;;12.20;;
23543;SDS011;11950;51.230;4.012;2023-05-07T05:05:20;13.45;;;11.75;;
23543;SDS011;11950;51.230;4.012;2023-05-07T05:07:50;12.77;;;11.35;;
23543;SDS011;11950;51.230;4.012;2023-05-07T05:10:17;14.50;;;11.07;;
23543;SDS011;11950;51.230;4.012;2023-05-07T05:12:44;17.08;;;11.60;;
23543;SDS011;11950;51.230;4.012;2023-05-07T05:15:11;16.85;;;12.65;;
23543;SDS011;11950;51.230;4.012;2023-05-07T05:17:43;18.55;;;13.05;;
23543;SDS011;11950;51.230;4.012;2023-05-07T05:20:11;18.77;;;13.13;;
23543;SDS011;11950;51.230;4.012;2023-05-07T05:22:39;20.92;;;13.55;;
23543;SDS011;11950;51.230;4.012;2023-05-07T05:25:06;22.90;;;12.75;;
23543;SDS011;11950;51.230;4.012;2023-05-07T05:27:34;15.40;;;12.27;;
23543;SDS011;11950;51.230;4.012;2023-05-07T05:30:01;15.80;;;12.20;;
23543;SDS011;11950;51.230;4.012;2023-05-07T05:32:29;15.73;;;11.23;;
23543;SDS011;11950;51.230;4.012;2023-05-07T05:34:56;16.02;;;11.35;;
23543;SDS011;11950;51.230;4.012;2023-05-07T05:37:23;15.15;;;12.15;;
23543;SDS011;11950;51.230;4.012;2023-05-07T05:39:50;15.10;;;12.40;;
23543;SDS011;11950;51.230;4.012;2023-05-07T05:42:16;13.30;;;11.90;;
23543;SDS011;11950;51.230;4.012;2023-05-07T05:44:43;13.88;;;11.45;;
23543;SDS011;11950;51.230;4.012;2023-05-07T05:47:09;11.70;;;10.50;;
23543;SDS011;11950;51.230;4.012;2023-05-07T05:49:36;14.77;;;10.40;;
23543;SDS011;11950;51.230;4.012;2023-05-07T05:52:04;12.43;;;10.77;;
23543;SDS011;11950;51.230;4.012;2023-05-07T05:54:30;11.95;;;10.75;;
23543;SDS011;11950;51.230;4.012;2023-05-07T05:56:57;13.88;;;12.10;;
23543;SDS011;11950;51.230;4.012;2023-05-07T05:59:24;16.13;;;13.07;;
23543;SDS011;11950;51.230;4.012;2023-05-07T06:01:52;13.43;;;11.88;;
23543;SDS011;11950;51.230;4.012;2023-05-07T06:04:21;14.18;;;11.75;;
23543;SDS011;11950;51.230;4.012;2023-05-07T06:06:47;14.35;;;11.57;;
23543;SDS011;11950;51.230;4.012;2023-05-07T06:09:14;12.93;;;11.63;;
23543;SDS011;11950;51.230;4.012;2023-05-07T06:11:43;14.60;;;12.07;;
23543;SDS011;11950;51.230;4.012;2023-05-07T06:14:11;16.27;;;12.88;;
23543;SDS011;11950;51.230;4.012;2023-05-07T06:16:37;19.90;;;13.70;;
23543;SDS011;11950;51.230;4.012;2023-05-07T06:19:06;19.40;;;14.20;;
23543;SDS011;11950;51.230;4.012;2023-05-07T06:21:33;19.73;;;15.25;;
23543;SDS011;11950;51.230;4.012;2023-05-07T06:23:59;17.38;;;14.68;;
23543;SDS011;11950;51.230;4.012;2023-05-07T06:26:26;17.58;;;15.70;;
23543;SDS011;11950;51.230;4.012;2023-05-07T06:28:52;20.83;;;15.57;;
23543;SDS011;11950;51.230;4.012;2023-05-07T06:31:19;21.80;;;16.33;;
23543;SDS011;11950;51.230;4.012;2023-05-07T06:33:52;21.27;;;18.08;;
23543;SDS011;11950;51.230;4.012;2023-05-07T06:36:19;21.45;;;17.90;;
23543;SDS011;11950;51.230;4.012;2023-05-07T06:38:46;22.42;;;17.27;;
23543;SDS011;11950;51.230;4.012;2023-05-07T06:41:12;20.90;;;16.83;;
23543;SDS011;11950;51.230;4.012;2023-05-07T06:43:39;22.67;;;18.05;;
23543;SDS011;11950;51.230;4.012;2023-05-07T06:46:24;23.42;;;18.33;;
23543;SDS011;11950;51.230;4.012;2023-05-07T06:48:50;19.95;;;17.85;;
23543;SDS011;11950;51.230;4.012;2023-05-07T06:51:19;21.25;;;18.52;;
23543;SDS011;11950;51.230;4.012;2023-05-07T06:53:45;21.92;;;18.70;;
23543;SDS011;11950;51.230;4.012;2023-05-07T06:56:12;23.85;;;18.38;;
23543;SDS011;11950;51.230;4.012;2023-05-07T06:58:39;21.65;;;18.42;;
23543;SDS011;11950;51.230;4.012;2023-05-07T07:01:06;22.75;;;18.45;;
23543;SDS011;11950;51.230;4.012;2023-05-07T07:03:34;19.77;;;17.67;;
23543;SDS011;11950;51.230;4.012;2023-05-07T07:06:00;26.20;;;18.88;;
23543;SDS011;11950;51.230;4.012;2023-05-07T07:08:28;24.40;;;18.83;;
23543;SDS011;11950;51.230;4.012;2023-05-07T07:10:55;22.98;;;19.23;;
23543;SDS011;11950;51.230;4.012;2023-05-07T07:13:21;22.27;;;18.73;;
23543;SDS011;11950;51.230;4.012;2023-05-07T07:15:48;19.45;;;17.35;;
23543;SDS011;11950;51.230;4.012;2023-05-07T07:18:14;21.63;;;18.73;;
23543;SDS011;11950;51.230;4.012;2023-05-07T07:20:42;20.35;;;18.13;;
23543;SDS011;11950;51.230;4.012;2023-05-07T07:23:10;24.85;;;17.23;;
23543;SDS011;11950;51.230;4.012;2023-05-07T07:25:36;21.95;;;16.75;;
23543;SDS011;11950;51.230;4.012;2023-05-07T07:28:03;18.10;;;14.43;;
23543;SDS011;11950;51.230;4.012;2023-05-07T07:30:30;19.73;;;14.82;;
23543;SDS011;11950;51.230;4.012;2023-05-07T07:32:56;19.33;;;14.02;;
23543;SDS011;11950;51.230;4.012;2023-05-07T07:35:29;18.67;;;12.80;;
23543;SDS011;11950;51.230;4.012;2023-05-07T07:37:56;18.45;;;13.48;;
23543;SDS011;11950;51.230;4.012;2023-05-07T07:40:22;17.73;;;13.48;;
23543;SDS011;11950;51.230;4.012;2023-05-07T07:42:49;16.58;;;12.82;;
23543;SDS011;11950;51.230;4.012;2023-05-07T07:45:16;16.50;;;10.32;;
23543;SDS011;11950;51.230;4.012;2023-05-07T07:47:46;12.02;;;9.95;;
23543;SDS011;11950;51.230;4.012;2023-05-07T07:50:12;12.75;;;8.35;;
23543;SDS011;11950;51.230;4.012;2023-05-07T07:52:39;11.90;;;9.30;;
23543;SDS011;11950;51.230;4.012;2023-05-07T07:55:07;13.23;;;8.82;;
23543;SDS011;11950;51.230;4.012;2023-05-07T07:57:35;12.68;;;8.70;;
23543;SDS011;11950;51.230;4.012;2023-05-07T08:00:02;13.48;;;8.27;;
23543;SDS011;11950;51.230;4.012;2023-05-07T08:02:31;10.90;;;7.82;;
23543;SDS011;11950;51.230;4.012;2023-05-07T08:04:57;10.98;;;7.90;;
23543;SDS011;11950;51.230;4.012;2023-05-07T08:07:23;11.00;;;7.45;;
23543;SDS011;11950;51.230;4.012;2023-05-07T08:09:50;15.68;;;7.75;;
23543;SDS011;11950;51.230;4.012;2023-05-07T08:12:20;8.98;;;7.05;;
23543;SDS011;11950;51.230;4.012;2023-05-07T08:14:48;9.73;;;7.20;;
23543;SDS011;11950;51.230;4.012;2023-05-07T08:17:14;9.50;;;7.22;;
23543;SDS011;11950;51.230;4.012;2023-05-07T08:19:42;10.02;;;6.97;;
23543;SDS011;11950;51.230;4.012;2023-05-07T08:22:11;7.90;;;6.35;;
23543;SDS011;11950;51.230;4.012;2023-05-07T08:24:38;8.10;;;6.22;;
23543;SDS011;11950;51.230;4.012;2023-05-07T08:27:04;7.97;;;6.03;;
23543;SDS011;11950;51.230;4.012;2023-05-07T08:29:31;11.15;;;6.65;;
23543;SDS011;11950;51.230;4.012;2023-05-07T08:31:59;7.93;;;6.18;;
23543;SDS011;11950;51.230;4.012;2023-05-07T08:34:26;13.15;;;7.50;;
23543;SDS011;11950;51.230;4.012;2023-05-07T08:36:54;8.43;;;6.70;;
23543;SDS011;11950;51.230;4.012;2023-05-07T08:39:23;10.60;;;6.80;;
23543;SDS011;11950;51.230;4.012;2023-05-07T08:41:52;10.00;;;6.72;;
23543;SDS011;11950;51.230;4.012;2023-05-07T08:44:23;12.60;;;7.35;;
23543;SDS011;11950;51.230;4.012;2023-05-07T08:46:55;10.05;;;5.95;;
23543;SDS011;11950;51.230;4.012;2023-05-07T08:49:23;9.00;;;6.53;;
23543;SDS011;11950;51.230;4.012;2023-05-07T08:51:51;9.25;;;5.97;;
23543;SDS011;11950;51.230;4.012;2023-05-07T08:54:19;7.13;;;5.85;;
23543;SDS011;11950;51.230;4.012;2023-05-07T08:56:47;9.57;;;6.85;;
23543;SDS011;11950;51.230;4.012;2023-05-07T08:59:14;7.22;;;6.13;;
23543;SDS011;11950;51.230;4.012;2023-05-07T09:01:42;8.27;;;5.55;;
23543;SDS011;11950;51.230;4.012;2023-05-07T09:04:10;9.02;;;6.32;;
23543;SDS011;11950;51.230;4.012;2023-05-07T09:06:38;8.30;;;5.88;;
23543;SDS011;11950;51.230;4.012;2023-05-07T09:09:08;11.32;;;6.07;;
23543;SDS011;11950;51.230;4.012;2023-05-07T09:11:35;10.43;;;6.20;;
23543;SDS011;11950;51.230;4.012;2023-05-07T09:14:01;7.93;;;6.05;;
23543;SDS011;11950;51.230;4.012;2023-05-07T09:16:33;8.00;;;5.55;;
23543;SDS011;11950;51.230;4.012;2023-05-07T09:19:00;7.03;;;4.93;;
23543;SDS011;11950;51.230;4.012;2023-05-07T09:21:27;6.38;;;5.05;;
23543;SDS011;11950;51.230;4.012;2023-05-07T09:23:55;5.18;;;4.65;;
23543;SDS011;11950;51.230;4.012;2023-05-07T09:26:29;5.30;;;4.57;;
23543;SDS011;11950;51.230;4.012;2023-05-07T09:28:58;6.78;;;4.82;;
23543;SDS011;11950;51.230;4.012;2023-05-07T09:31:24;7.68;;;4.68;;
23543;SDS011;11950;51.230;4.012;2023-05-07T09:33:53;6.00;;;4.35;;
23543;SDS011;11950;51.230;4.012;2023-05-07T09:36:23;8.85;;;4.88;;
23543;SDS011;11950;51.230;4.012;2023-05-07T09:38:50;5.15;;;4.65;;
23543;SDS011;11950;51.230;4.012;2023-05-07T09:41:16;5.70;;;3.92;;
23543;SDS011;11950;51.230;4.012;2023-05-07T09:43:54;7.15;;;4.38;;
23543;SDS011;11950;51.230;4.012;2023-05-07T09:46:27;4.82;;;4.03;;
23543;SDS011;11950;51.230;4.012;2023-05-07T09:48:58;8.95;;;4.40;;
23543;SDS011;11950;51.230;4.012;2023-05-07T09:51:32;6.72;;;4.80;;
23543;SDS011;11950;51.230;4.012;2023-05-07T09:54:05;7.13;;;5.38;;
23543;SDS011;11950;51.230;4.012;2023-05-07T09:56:35;6.25;;;5.53;;
23543;SDS011;11950;51.230;4.012;2023-05-07T09:59:04;7.82;;;4.70;;
23543;SDS011;11950;51.230;4.012;2023-05-07T10:01:33;7.80;;;4.55;;
23543;SDS011;11950;51.230;4.012;2023-05-07T10:04:02;7.00;;;4.53;;
23543;SDS011;11950;51.230;4.012;2023-05-07T10:06:30;6.75;;;4.78;;
23543;SDS011;11950;51.230;4.012;2023-05-07T10:08:58;5.47;;;4.20;;
23543;SDS011;11950;51.230;4.012;2023-05-07T10:11:25;7.50;;;3.80;;
23543;SDS011;11950;51.230;4.012;2023-05-07T10:13:52;6.57;;;3.72;;
23543;SDS011;11950;51.230;4.012;2023-05-07T10:16:18;6.93;;;3.88;;
23543;SDS011;11950;51.230;4.012;2023-05-07T10:18:47;6.65;;;3.97;;
23543;SDS011;11950;51.230;4.012;2023-05-07T10:21:20;8.73;;;3.67;;
23543;SDS011;11950;51.230;4.012;2023-05-07T10:23:51;6.80;;;3.78;;
23543;SDS011;11950;51.230;4.012;2023-05-07T10:26:23;5.45;;;3.88;;
23543;SDS011;11950;51.230;4.012;2023-05-07T10:28:54;6.25;;;3.70;;
23543;SDS011;11950;51.230;4.012;2023-05-07T10:31:48;4.72;;;3.83;;
23543;SDS011;11950;51.230;4.012;2023-05-07T10:34:28;4.97;;;4.18;;
23543;SDS011;11950;51.230;4.012;2023-05-07T10:37:00;5.03;;;3.60;;
23543;SDS011;11950;51.230;4.012;2023-05-07T10:39:29;5.40;;;3.88;;
23543;SDS011;11950;51.230;4.012;2023-05-07T10:42:06;8.07;;;4.45;;
23543;SDS011;11950;51.230;4.012;2023-05-07T10:44:38;4.60;;;3.80;;
23543;SDS011;11950;51.230;4.012;2023-05-07T10:47:11;6.15;;;4.30;;
23543;SDS011;11950;51.230;4.012;2023-05-07T10:52:28;6.30;;;3.63;;
23543;SDS011;11950;51.230;4.012;2023-05-07T10:58:42;5.78;;;3.58;;
23543;SDS011;11950;51.230;4.012;2023-05-07T11:01:13;4.85;;;3.47;;
23543;SDS011;11950;51.230;4.012;2023-05-07T11:15:07;6.13;;;4.10;;
23543;SDS011;11950;51.230;4.012;2023-05-07T11:17:54;6.93;;;3.90;;
23543;SDS011;11950;51.230;4.012;2023-05-07T11:26:24;4.43;;;2.00;;
23543;SDS011;11950;51.230;4.012;2023-05-07T11:28:52;4.95;;;2.40;;
23543;SDS011;11950;51.230;4.012;2023-05-07T11:31:21;3.58;;;2.80;;
23543;SDS011;11950;51.230;4.012;2023-05-07T11:33:51;5.70;;;2.97;;
23543;SDS011;11950;51.230;4.012;2023-05-07T11:36:21;4.82;;;2.47;;
23543;SDS011;11950;51.230;4.012;2023-05-07T11:38:51;3.67;;;2.50;;
23543;SDS011;11950;51.230;4.012;2023-05-07T11:41:17;4.50;;;2.50;;
23543;SDS011;11950;51.230;4.012;2023-05-07T11:43:55;6.50;;;2.70;;
23543;SDS011;11950;51.230;4.012;2023-05-07T11:46:22;3.55;;;2.33;;
23543;SDS011;11950;51.230;4.012;2023-05-07T11:48:49;3.17;;;2.13;;
23543;SDS011;11950;51.230;4.012;2023-05-07T11:51:22;4.97;;;1.90;;
23543;SDS011;11950;51.230;4.012;2023-05-07T11:53:51;5.13;;;1.98;;
23543;SDS011;11950;51.230;4.012;2023-05-07T11:56:18;3.75;;;2.10;;
23543;SDS011;11950;51.230;4.012;2023-05-07T11:58:45;4.18;;;2.10;;
23543;SDS011;11950;51.230;4.012;2023-05-07T12:01:13;3.17;;;1.85;;
23543;SDS011;11950;51.230;4.012;2023-05-07T12:03:42;4.10;;;1.77;;
23543;SDS011;11950;51.230;4.012;2023-05-07T12:06:10;4.32;;;2.75;;
23543;SDS011;11950;51.230;4.012;2023-05-07T12:08:38;4.30;;;2.40;;
23543;SDS011;11950;51.230;4.012;2023-05-07T12:11:06;3.25;;;2.45;;
23543;SDS011;11950;51.230;4.012;2023-05-07T12:13:34;2.88;;;2.55;;
23543;SDS011;11950;51.230;4.012;2023-05-07T12:16:01;4.50;;;2.50;;
23543;SDS011;11950;51.230;4.012;2023-05-07T12:18:29;5.97;;;2.65;;
23543;SDS011;11950;51.230;4.012;2023-05-07T12:20:55;3.78;;;2.63;;
23543;SDS011;11950;51.230;4.012;2023-05-07T12:23:22;5.22;;;2.53;;
23543;SDS011;11950;51.230;4.012;2023-05-07T12:25:49;3.92;;;3.38;;
23543;SDS011;11950;51.230;4.012;2023-05-07T12:28:16;4.93;;;3.38;;
23543;SDS011;11950;51.230;4.012;2023-05-07T12:30:44;4.10;;;3.42;;
23543;SDS011;11950;51.230;4.012;2023-05-07T12:33:11;5.45;;;3.60;;
23543;SDS011;11950;51.230;4.012;2023-05-07T12:35:42;6.20;;;3.67;;
23543;SDS011;11950;51.230;4.012;2023-05-07T12:38:16;6.35;;;3.80;;
23543;SDS011;11950;51.230;4.012;2023-05-07T12:40:44;4.80;;;4.30;;
23543;SDS011;11950;51.230;4.012;2023-05-07T12:43:24;7.13;;;4.55;;
23543;SDS011;11950;51.230;4.012;2023-05-07T12:45:53;6.90;;;4.40;;
23543;SDS011;11950;51.230;4.012;2023-05-07T12:48:21;5.47;;;4.47;;
23543;SDS011;11950;51.230;4.012;2023-05-07T12:50:51;4.55;;;4.13;;
23543;SDS011;11950;51.230;4.012;2023-05-07T12:53:22;5.30;;;4.40;;
23543;SDS011;11950;51.230;4.012;2023-05-07T12:55:51;6.65;;;3.70;;
23543;SDS011;11950;51.230;4.012;2023-05-07T12:58:26;4.78;;;4.25;;
23543;SDS011;11950;51.230;4.012;2023-05-07T13:00:54;5.15;;;4.53;;
23543;SDS011;11950;51.230;4.012;2023-05-07T13:03:27;5.63;;;4.30;;
23543;SDS011;11950;51.230;4.012;2023-05-07T13:06:04;4.43;;;3.65;;
23543;SDS011;11950;51.230;4.012;2023-05-07T13:08:36;9.55;;;3.55;;
23543;SDS011;11950;51.230;4.012;2023-05-07T13:11:06;5.10;;;3.83;;
23543;SDS011;11950;51.230;4.012;2023-05-07T13:17:07;4.97;;;2.90;;
23543;SDS011;11950;51.230;4.012;2023-05-07T13:19:34;4.82;;;3.90;;
23543;SDS011;11950;51.230;4.012;2023-05-07T13:22:03;2.95;;;2.70;;
23543;SDS011;11950;51.230;4.012;2023-05-07T13:24:29;3.20;;;2.88;;
23543;SDS011;11950;51.230;4.012;2023-05-07T13:26:56;5.20;;;3.03;;
23543;SDS011;11950;51.230;4.012;2023-05-07T13:29:22;3.67;;;2.55;;
23543;SDS011;11950;51.230;4.012;2023-05-07T13:31:54;3.55;;;2.92;;
23543;SDS011;11950;51.230;4.012;2023-05-07T13:34:22;5.07;;;3.58;;
23543;SDS011;11950;51.230;4.012;2023-05-07T13:36:49;3.45;;;3.15;;
23543;SDS011;11950;51.230;4.012;2023-05-07T13:39:15;3.97;;;3.65;;
23543;SDS011;11950;51.230;4.012;2023-05-07T13:41:42;4.10;;;3.70;;
23543;SDS011;11950;51.230;4.012;2023-05-07T13:44:08;3.72;;;3.30;;
23543;SDS011;11950;51.230;4.012;2023-05-07T13:46:35;3.95;;;3.30;;
23543;SDS011;11950;51.230;4.012;2023-05-07T13:49:02;4.97;;;3.67;;
23543;SDS011;11950;51.230;4.012;2023-05-07T13:51:28;3.92;;;3.50;;
23543;SDS011;11950;51.230;4.012;2023-05-07T13:53:55;5.25;;;3.60;;
23543;SDS011;11950;51.230;4.012;2023-05-07T13:56:21;4.82;;;4.43;;
23543;SDS011;11950;51.230;4.012;2023-05-07T13:58:48;5.57;;;4.47;;
23543;SDS011;11950;51.230;4.012;2023-05-07T14:08:37;4.20;;;3.72;;
23543;SDS011;11950;51.230;4.012;2023-05-07T14:22:41;6.82;;;3.70;;
23543;SDS011;11950;51.230;4.012;2023-05-07T14:28:30;4.70;;;3.95;;
23543;SDS011;11950;51.230;4.012;2023-05-07T14:31:30;5.50;;;3.95;;
23543;SDS011;11950;51.230;4.012;2023-05-07T14:34:58;5.65;;;3.75;;
23543;SDS011;11950;51.230;4.012;2023-05-07T14:37:28;3.33;;;3.13;;
23543;SDS011;11950;51.230;4.012;2023-05-07T14:40:17;3.35;;;3.05;;
23543;SDS011;11950;51.230;4.012;2023-05-07T14:54:27;4.47;;;2.47;;
23543;SDS011;11950;51.230;4.012;2023-05-07T15:02:02;3.55;;;3.33;;
23543;SDS011;11950;51.230;4.012;2023-05-07T15:05:43;4.00;;;3.00;;
23543;SDS011;11950;51.230;4.012;2023-05-07T15:11:22;3.30;;;2.60;;
23543;SDS011;11950;51.230;4.012;2023-05-07T15:20:02;6.75;;;2.75;;
23543;SDS011;11950;51.230;4.012;2023-05-07T15:30:22;2.83;;;2.60;;
23543;SDS011;11950;51.230;4.012;2023-05-07T15:32:51;4.65;;;2.67;;
23543;SDS011;11950;51.230;4.012;2023-05-07T15:39:38;4.13;;;2.60;;
23543;SDS011;11950;51.230;4.012;2023-05-07T15:42:45;3.45;;;2.40;;
23543;SDS011;11950;51.230;4.012;2023-05-07T15:45:12;2.90;;;2.25;;
23543;SDS011;11950;51.230;4.012;2023-05-07T15:47:38;3.58;;;2.20;;
23543;SDS011;11950;51.230;4.012;2023-05-07T15:50:05;3.20;;;2.78;;
23543;SDS011;11950;51.230;4.012;2023-05-07T15:52:31;2.55;;;2.17;;
23543;SDS011;11950;51.230;4.012;2023-05-07T15:54:58;3.85;;;1.92;;
23543;SDS011;11950;51.230;4.012;2023-05-07T15:57:24;3.05;;;1.98;;
23543;SDS011;11950;51.230;4.012;2023-05-07T15:59:51;4.70;;;2.53;;
23543;SDS011;11950;51.230;4.012;2023-05-07T16:02:17;4.00;;;2.72;;
23543;SDS011;11950;51.230;4.012;2023-05-07T16:04:44;3.85;;;2.05;;
23543;SDS011;11950;51.230;4.012;2023-05-07T16:07:10;3.47;;;3.17;;
23543;SDS011;11950;51.230;4.012;2023-05-07T16:09:36;2.95;;;2.67;;
23543;SDS011;11950;51.230;4.012;2023-05-07T16:12:03;6.47;;;3.40;;
23543;SDS011;11950;51.230;4.012;2023-05-07T16:14:30;3.95;;;2.63;;
23543;SDS011;11950;51.230;4.012;2023-05-07T16:16:56;5.05;;;2.90;;